createdAt,value
2019-02-12T00:00:25.849Z,91.31
2019-02-12T00:01:25.836Z,91.63
2019-02-12T00:02:25.818Z,91.10
2019-02-12T00:03:25.866Z,91.63
2019-02-12T00:04:25.798Z,91.56
2019-02-12T00:05:25.784Z,91.46
2019-02-12T00:06:25.771Z,91.10
2019-02-12T00:07:25.765Z,92.47
2019-02-12T00:08:25.781Z,91.31
2019-02-12T00:09:25.788Z,91.42
2019-02-12T00:10:25.855Z,91.31
2019-02-12T00:11:25.725Z,91.10
2019-02-12T00:12:25.706Z,91.63
2019-02-12T00:13:25.711Z,91.74
2019-02-12T00:14:25.747Z,91.31
2019-02-12T00:15:25.684Z,91.63
2019-02-12T00:16:25.708Z,91.20
2019-02-12T00:17:25.655Z,91.42
2019-02-12T00:18:25.828Z,91.42
2019-02-12T00:19:25.637Z,92.52
2019-02-12T00:20:25.631Z,93.32
2019-02-12T00:21:25.759Z,93.47
2019-02-12T00:22:25.665Z,93.85
2019-02-12T00:23:25.597Z,93.21
2019-02-12T00:24:25.588Z,92.69
2019-02-12T00:25:25.573Z,93.01
2019-02-12T00:26:25.587Z,92.47
2019-02-12T00:27:25.704Z,92.58
2019-02-12T00:28:25.543Z,92.90
2019-02-12T00:29:25.531Z,92.90
2019-02-12T00:30:25.702Z,92.86
2019-02-12T00:31:25.512Z,92.22
2019-02-12T00:32:25.511Z,92.37
2019-02-12T00:33:25.521Z,92.33
2019-02-12T00:34:25.479Z,92.33
2019-02-12T00:35:25.522Z,92.22
2019-02-12T00:36:25.477Z,92.65
2019-02-12T00:37:25.455Z,92.43
2019-02-12T00:38:25.445Z,92.86
2019-02-12T00:39:25.449Z,92.33
2019-02-12T00:40:25.414Z,92.54
2019-02-12T00:41:25.451Z,92.22
2019-02-12T00:42:25.436Z,93.38
2019-02-12T00:43:25.385Z,93.07
2019-02-12T00:44:25.404Z,93.70
2019-02-12T00:45:25.360Z,93.60
2019-02-12T00:46:25.346Z,93.81
2019-02-12T00:47:25.341Z,93.60
2019-02-12T00:48:25.367Z,94.34
2019-02-12T00:49:25.324Z,93.87
2019-02-12T00:50:25.332Z,93.60
2019-02-12T00:51:25.296Z,93.70
2019-02-12T00:52:25.301Z,93.60
2019-02-12T00:53:25.280Z,93.60
2019-02-12T00:54:25.325Z,93.81
2019-02-12T00:55:25.256Z,93.70
2019-02-12T00:56:25.248Z,93.70
2019-02-12T00:57:25.233Z,93.81
2019-02-12T00:58:25.225Z,93.28
2019-02-12T00:59:25.234Z,93.49
2019-02-12T01:00:25.241Z,93.38
2019-02-12T01:01:25.192Z,93.81
2019-02-12T01:02:25.187Z,93.60
2019-02-12T01:03:25.175Z,93.55
2019-02-12T01:04:25.164Z,93.91
2019-02-12T01:05:25.165Z,93.66
2019-02-12T01:06:25.176Z,93.66
2019-02-12T01:07:25.136Z,93.81
2019-02-12T01:08:25.130Z,94.02
2019-02-12T01:09:25.111Z,94.19
2019-02-12T01:10:25.110Z,93.70
2019-02-12T01:11:25.090Z,94.29
2019-02-12T01:12:25.141Z,94.23
2019-02-12T01:13:25.076Z,93.28
2019-02-12T01:14:25.060Z,93.02
2019-02-12T01:15:25.041Z,92.07
2019-02-12T01:16:25.040Z,92.82
2019-02-12T01:17:25.029Z,92.50
2019-02-12T01:18:25.057Z,91.76
2019-02-12T01:19:25.007Z,91.02
2019-02-12T01:20:24.995Z,90.91
2019-02-12T01:21:26.416Z,91.33
2019-02-12T01:22:24.973Z,91.13
2019-02-12T01:23:25.017Z,92.33
2019-02-12T01:24:24.947Z,92.50
2019-02-12T01:25:24.958Z,92.33
2019-02-12T01:26:24.933Z,93.18
2019-02-12T01:27:24.915Z,92.33
2019-02-12T01:28:24.908Z,92.92
2019-02-12T01:29:24.946Z,92.92
2019-02-12T01:30:24.926Z,92.50
2019-02-12T01:31:24.889Z,92.50
2019-02-12T01:32:24.894Z,92.82
2019-02-12T01:33:24.858Z,92.71
2019-02-12T01:34:24.845Z,91.97
2019-02-12T01:35:24.839Z,92.07
2019-02-12T01:36:24.865Z,92.07
2019-02-12T01:37:24.820Z,91.76
2019-02-12T01:38:24.820Z,91.97
2019-02-12T01:39:24.794Z,91.55
2019-02-12T01:40:24.783Z,92.39
2019-02-12T01:41:24.774Z,91.86
2019-02-12T01:42:24.801Z,91.02
2019-02-12T01:43:24.754Z,91.23
2019-02-12T01:44:24.754Z,90.91
2019-02-12T01:45:24.741Z,91.02
2019-02-12T01:46:24.718Z,91.13
2019-02-12T01:47:24.716Z,91.13
2019-02-12T01:48:24.741Z,91.13
2019-02-12T01:49:24.689Z,90.70
2019-02-12T01:50:24.676Z,90.66
2019-02-12T01:51:24.677Z,89.64
2019-02-12T01:52:24.653Z,89.96
2019-02-12T01:53:24.643Z,90.59
2019-02-12T01:54:24.669Z,90.81
2019-02-12T01:55:24.623Z,90.28
2019-02-12T01:56:24.613Z,91.02
2019-02-12T01:57:24.616Z,91.13
2019-02-12T01:58:24.629Z,91.23
2019-02-12T01:59:24.585Z,91.33
2019-02-12T02:00:24.579Z,90.59
2019-02-12T02:01:24.560Z,91.13
2019-02-12T02:02:24.549Z,91.13
2019-02-12T02:03:24.557Z,91.02
2019-02-12T02:04:24.567Z,91.23
2019-02-12T02:05:24.520Z,91.16
2019-02-12T02:06:24.508Z,91.16
2019-02-12T02:07:24.511Z,90.95
2019-02-12T02:08:24.487Z,90.74
2019-02-12T02:09:24.537Z,90.84
2019-02-12T02:10:24.466Z,91.02
2019-02-12T02:11:24.494Z,90.11
2019-02-12T02:12:24.445Z,89.47
2019-02-12T02:13:24.437Z,89.89
2019-02-12T02:14:24.422Z,87.57
2019-02-12T02:15:24.428Z,85.10
2019-02-12T02:16:24.407Z,86.09
2019-02-12T02:17:24.428Z,87.88
2019-02-12T02:18:24.380Z,87.40
2019-02-12T02:19:24.379Z,88.31
2019-02-12T02:20:24.358Z,87.15
2019-02-12T02:21:24.373Z,87.04
2019-02-12T02:22:24.379Z,87.82
2019-02-12T02:23:24.331Z,85.14
2019-02-12T02:24:24.356Z,83.97
2019-02-12T02:25:24.311Z,81.85
2019-02-12T02:26:24.309Z,84.25
2019-02-12T02:27:24.284Z,85.56
2019-02-12T02:28:24.283Z,85.17
2019-02-12T02:29:24.266Z,83.87
2019-02-12T02:30:24.303Z,83.65
2019-02-12T02:31:24.244Z,84.61
2019-02-12T02:32:24.229Z,84.82
2019-02-12T02:33:24.224Z,85.91
2019-02-12T02:34:24.223Z,87.18
2019-02-12T02:35:24.199Z,87.61
2019-02-12T02:36:24.229Z,88.24
2019-02-12T02:37:24.179Z,88.49
2019-02-12T02:38:24.168Z,87.75
2019-02-12T02:39:24.159Z,88.28
2019-02-12T02:40:24.165Z,88.60
2019-02-12T02:41:24.174Z,88.60
2019-02-12T02:42:24.126Z,88.28
2019-02-12T02:43:24.126Z,88.18
2019-02-12T02:44:24.106Z,88.21
2019-02-12T02:45:24.096Z,88.85
2019-02-12T02:46:24.096Z,88.75
2019-02-12T02:47:24.124Z,88.75
2019-02-12T02:48:24.074Z,89.49
2019-02-12T02:49:24.053Z,89.17
2019-02-12T02:50:24.039Z,89.17
2019-02-12T02:51:24.032Z,89.06
2019-02-12T02:52:24.033Z,89.11
2019-02-12T02:53:24.058Z,89.21
2019-02-12T02:54:24.018Z,89.11
2019-02-12T02:55:23.991Z,89.21
2019-02-12T02:56:23.981Z,88.11
2019-02-12T02:57:24.005Z,87.75
2019-02-12T02:58:23.960Z,85.53
2019-02-12T02:59:23.982Z,86.59
2019-02-12T03:00:23.940Z,86.48
2019-02-12T03:01:23.944Z,87.43
2019-02-12T03:02:23.919Z,87.26
2019-02-12T03:03:23.904Z,87.90
2019-02-12T03:04:23.894Z,87.33
2019-02-12T03:05:23.930Z,87.01
2019-02-12T03:06:23.875Z,86.27
2019-02-12T03:07:23.863Z,87.65
2019-02-12T03:08:23.875Z,87.43
2019-02-12T03:09:23.842Z,87.75
2019-02-12T03:10:23.832Z,88.18
2019-02-12T03:11:23.864Z,87.01
2019-02-12T03:12:23.813Z,87.01
2019-02-12T03:13:23.800Z,87.43
2019-02-12T03:14:23.793Z,87.54
2019-02-12T03:15:23.797Z,87.75
2019-02-12T03:16:23.770Z,88.18
2019-02-12T03:17:23.792Z,88.24
2019-02-12T03:18:23.753Z,88.67
2019-02-12T03:19:23.735Z,88.35
2019-02-12T03:20:23.723Z,89.72
2019-02-12T03:21:23.717Z,89.83
2019-02-12T03:22:23.765Z,89.20
2019-02-12T03:23:23.697Z,88.67
2019-02-12T03:24:23.687Z,89.20
2019-02-12T03:25:23.685Z,88.98
2019-02-12T03:26:23.671Z,89.09
2019-02-12T03:27:23.656Z,89.83
2019-02-12T03:28:23.694Z,88.98
2019-02-12T03:29:23.652Z,88.67
2019-02-12T03:30:23.633Z,88.98
2019-02-12T03:31:23.625Z,89.09
2019-02-12T03:32:23.603Z,87.71
2019-02-12T03:33:23.613Z,88.03
2019-02-12T03:34:23.617Z,87.93
2019-02-12T03:35:23.584Z,87.93
2019-02-12T03:36:23.568Z,86.72
2019-02-12T03:37:23.546Z,86.09
2019-02-12T03:38:23.539Z,87.15
2019-02-12T03:39:23.527Z,88.67
2019-02-12T03:40:23.563Z,88.67
2019-02-12T03:41:23.535Z,88.56
2019-02-12T03:42:23.495Z,88.88
2019-02-12T03:43:23.484Z,89.09
2019-02-12T03:44:23.484Z,89.40
2019-02-12T03:45:23.463Z,89.20
2019-02-12T03:46:23.506Z,89.30
2019-02-12T03:47:23.459Z,89.40
2019-02-12T03:48:23.432Z,89.51
2019-02-12T03:49:23.419Z,89.62
2019-02-12T03:50:23.450Z,89.83
2019-02-12T03:51:23.399Z,90.15
2019-02-12T03:52:23.386Z,90.67
2019-02-12T03:53:23.407Z,90.89
2019-02-12T03:54:23.365Z,90.67
2019-02-12T03:55:23.373Z,90.89
2019-02-12T03:56:23.394Z,90.78
2019-02-12T03:57:23.338Z,90.78
2019-02-12T03:58:23.322Z,90.67
2019-02-12T03:59:23.333Z,90.67
2019-02-12T04:00:23.309Z,90.78
2019-02-12T04:01:23.296Z,90.57
2019-02-12T04:02:23.321Z,90.99
2019-02-12T04:03:23.319Z,91.20
2019-02-12T04:04:23.264Z,90.67
2019-02-12T04:05:23.258Z,90.67
2019-02-12T04:06:23.257Z,90.78
2019-02-12T04:07:23.233Z,90.78
2019-02-12T04:08:23.259Z,90.99
2019-02-12T04:09:23.217Z,90.15
2019-02-12T04:10:23.201Z,90.08
2019-02-12T04:11:24.387Z,90.19
2019-02-12T04:12:23.176Z,90.67
2019-02-12T04:13:23.232Z,89.72
2019-02-12T04:14:23.158Z,89.72
2019-02-12T04:15:23.143Z,89.51
2019-02-12T04:16:23.141Z,89.72
2019-02-12T04:17:23.135Z,89.40
2019-02-12T04:18:23.111Z,89.94
2019-02-12T04:19:23.146Z,89.94
2019-02-12T04:20:23.110Z,89.51
2019-02-12T04:21:23.087Z,91.03
2019-02-12T04:22:23.350Z,90.78
2019-02-12T04:23:23.067Z,90.36
2019-02-12T04:24:23.050Z,89.51
2019-02-12T04:25:23.081Z,89.72
2019-02-12T04:26:23.027Z,89.72
2019-02-12T04:27:23.032Z,89.94
2019-02-12T04:28:23.015Z,89.76
2019-02-12T04:29:23.002Z,89.98
2019-02-12T04:30:22.996Z,89.76
2019-02-12T04:31:23.037Z,89.76
2019-02-12T04:32:22.966Z,89.98
2019-02-12T04:33:22.966Z,89.87
2019-02-12T04:34:22.945Z,89.66
2019-02-12T04:35:22.935Z,89.55
2019-02-12T04:36:22.924Z,89.55
2019-02-12T04:37:22.965Z,89.87
2019-02-12T04:38:22.922Z,89.34
2019-02-12T04:39:22.910Z,89.55
2019-02-12T04:40:22.884Z,89.55
2019-02-12T04:41:22.871Z,89.66
2019-02-12T04:42:22.860Z,90.12
2019-02-12T04:43:22.887Z,89.98
2019-02-12T04:44:22.854Z,90.12
2019-02-12T04:45:22.826Z,89.91
2019-02-12T04:46:22.824Z,89.55
2019-02-12T04:47:22.890Z,89.55
2019-02-12T04:48:23.225Z,90.12
2019-02-12T04:49:22.822Z,89.70
2019-02-12T04:50:22.776Z,90.12
2019-02-12T04:51:22.768Z,89.66
2019-02-12T04:52:31.610Z,89.55
2019-02-12T04:53:23.785Z,89.45
2019-02-12T04:54:22.734Z,89.23
2019-02-12T04:55:22.729Z,89.87
2019-02-12T04:56:22.718Z,89.59
2019-02-12T04:57:22.720Z,89.76
2019-02-12T04:58:22.694Z,90.12
2019-02-12T04:59:22.718Z,89.76
2019-02-12T05:00:22.728Z,89.23
2019-02-12T05:01:22.675Z,89.98
2019-02-12T05:02:22.650Z,89.98
2019-02-12T05:03:22.659Z,87.43
2019-02-12T05:04:22.633Z,85.91
2019-02-12T05:05:22.659Z,86.38
2019-02-12T05:06:22.707Z,88.07
2019-02-12T05:07:22.608Z,88.92
2019-02-12T05:08:22.585Z,88.60
2019-02-12T05:09:22.584Z,87.43
2019-02-12T05:10:22.589Z,88.03
2019-02-12T05:11:22.589Z,88.92
2019-02-12T05:12:22.545Z,88.49
2019-02-12T05:13:22.548Z,89.03
2019-02-12T05:14:22.536Z,88.92
2019-02-12T05:15:22.517Z,87.54
2019-02-12T05:16:22.509Z,86.34
2019-02-12T05:17:22.534Z,84.82
2019-02-12T05:18:22.495Z,85.17
2019-02-12T05:19:22.487Z,85.39
2019-02-12T05:20:22.459Z,85.17
2019-02-12T05:21:22.536Z,85.11
2019-02-12T05:22:22.464Z,85.32
2019-02-12T05:23:22.469Z,85.53
2019-02-12T05:24:22.417Z,85.85
2019-02-12T05:25:22.416Z,86.48
2019-02-12T05:26:22.396Z,87.01
2019-02-12T05:27:22.417Z,87.48
2019-02-12T05:28:22.404Z,87.48
2019-02-12T05:29:22.466Z,87.65
2019-02-12T05:30:22.385Z,87.33
2019-02-12T05:31:22.374Z,87.23
2019-02-12T05:32:22.435Z,87.37
2019-02-12T05:33:22.381Z,87.48
2019-02-12T05:34:22.356Z,88.11
2019-02-12T05:35:22.343Z,88.64
2019-02-12T05:36:22.315Z,89.03
2019-02-12T05:37:22.297Z,88.96
2019-02-12T05:38:22.289Z,88.53
2019-02-12T05:39:22.335Z,89.17
2019-02-12T05:40:22.274Z,88.96
2019-02-12T05:41:22.262Z,89.06
2019-02-12T05:42:22.256Z,89.28
2019-02-12T05:43:22.276Z,89.28
2019-02-12T05:44:22.230Z,89.17
2019-02-12T05:45:22.288Z,89.49
2019-02-12T05:46:22.211Z,89.38
2019-02-12T05:47:22.198Z,89.49
2019-02-12T05:48:22.233Z,89.81
2019-02-12T05:49:22.172Z,90.12
2019-02-12T05:50:22.173Z,89.91
2019-02-12T05:51:22.214Z,89.81
2019-02-12T05:52:22.158Z,89.38
2019-02-12T05:53:22.158Z,89.49
2019-02-12T05:54:22.126Z,90.06
2019-02-12T05:55:22.136Z,90.01
2019-02-12T05:56:22.083Z,89.64
2019-02-12T05:57:22.113Z,89.64
2019-02-12T05:58:22.157Z,89.53
2019-02-12T05:59:22.068Z,89.31
2019-02-12T06:00:22.041Z,89.42
2019-02-12T06:01:22.054Z,88.79
2019-02-12T06:02:22.056Z,88.96
2019-02-12T06:03:22.063Z,88.85
2019-02-12T06:04:22.000Z,85.00
2019-02-12T06:05:22.036Z,82.78
2019-02-12T06:06:22.008Z,83.94
2019-02-12T06:07:22.013Z,85.32
2019-02-12T06:08:21.977Z,86.38
2019-02-12T06:09:22.021Z,87.05
2019-02-12T06:10:21.992Z,87.79
2019-02-12T06:11:21.950Z,88.53
2019-02-12T06:12:21.933Z,88.75
2019-02-12T06:13:21.922Z,89.17
2019-02-12T06:14:22.003Z,89.06
2019-02-12T06:15:21.966Z,88.75
2019-02-12T06:16:21.913Z,89.00
2019-02-12T06:17:21.882Z,89.11
2019-02-12T06:18:21.910Z,88.85
2019-02-12T06:19:21.911Z,88.47
2019-02-12T06:20:21.856Z,89.21
2019-02-12T06:21:21.840Z,89.11
2019-02-12T06:22:21.838Z,88.89
2019-02-12T06:23:21.838Z,88.89
2019-02-12T06:24:21.820Z,88.61
2019-02-12T06:25:21.850Z,88.68
2019-02-12T06:26:21.785Z,88.82
2019-02-12T06:27:21.775Z,88.93
2019-02-12T06:28:21.755Z,88.51
2019-02-12T06:29:21.739Z,89.25
2019-02-12T06:30:21.730Z,89.14
2019-02-12T06:31:21.764Z,88.36
2019-02-12T06:32:21.736Z,88.19
2019-02-12T06:33:21.704Z,88.40
2019-02-12T06:34:21.772Z,87.87
2019-02-12T06:35:21.677Z,88.40
2019-02-12T06:36:21.668Z,88.09
2019-02-12T06:37:21.669Z,88.19
2019-02-12T06:38:21.645Z,88.15
2019-02-12T06:39:21.649Z,87.87
2019-02-12T06:40:21.668Z,87.87
2019-02-12T06:41:21.614Z,88.51
2019-02-12T06:42:21.605Z,87.98
2019-02-12T06:43:21.594Z,88.19
2019-02-12T06:44:21.597Z,87.87
2019-02-12T06:45:21.574Z,88.09
2019-02-12T06:46:21.594Z,87.77
2019-02-12T06:47:21.549Z,87.66
2019-02-12T06:48:21.537Z,87.66
2019-02-12T06:49:21.530Z,87.66
2019-02-12T06:50:21.524Z,87.55
2019-02-12T06:51:21.528Z,87.19
2019-02-12T06:52:21.538Z,87.09
2019-02-12T06:53:21.486Z,87.30
2019-02-12T06:54:21.497Z,87.73
2019-02-12T06:55:21.463Z,87.83
2019-02-12T06:56:21.458Z,87.73
2019-02-12T06:57:21.447Z,87.41
2019-02-12T06:58:21.486Z,87.62
2019-02-12T06:59:21.422Z,87.30
2019-02-12T07:00:21.417Z,86.63
2019-02-12T07:01:21.413Z,86.63
2019-02-12T07:02:21.395Z,86.41
2019-02-12T07:03:21.382Z,86.52
2019-02-12T07:04:21.409Z,86.56
2019-02-12T07:05:21.372Z,85.99
2019-02-12T07:06:21.354Z,85.68
2019-02-12T07:07:21.347Z,85.93
2019-02-12T07:08:21.330Z,85.93
2019-02-12T07:09:21.320Z,86.14
2019-02-12T07:10:21.346Z,85.68
2019-02-12T07:11:21.313Z,85.82
2019-02-12T07:12:21.289Z,85.68
2019-02-12T07:13:21.295Z,85.68
2019-02-12T07:14:21.284Z,85.39
2019-02-12T07:15:21.302Z,85.39
2019-02-12T07:16:21.248Z,85.36
2019-02-12T07:17:21.237Z,85.14
2019-02-12T07:18:21.236Z,84.83
2019-02-12T07:19:21.213Z,84.93
2019-02-12T07:20:21.204Z,85.46
2019-02-12T07:21:21.232Z,85.32
2019-02-12T07:22:21.187Z,85.36
2019-02-12T07:23:21.681Z,85.36
2019-02-12T07:24:21.173Z,85.36
2019-02-12T07:25:21.155Z,85.25
2019-02-12T07:26:21.143Z,85.00
2019-02-12T07:27:21.175Z,85.00
2019-02-12T07:28:21.120Z,84.69
2019-02-12T07:29:21.110Z,84.89
2019-02-12T07:30:21.106Z,85.00
2019-02-12T07:31:21.150Z,84.58
2019-02-12T07:32:21.095Z,84.30
2019-02-12T07:33:21.105Z,84.69
2019-02-12T07:34:21.076Z,84.72
2019-02-12T07:35:21.052Z,85.25
2019-02-12T07:36:21.040Z,85.25
2019-02-12T07:37:21.067Z,85.00
2019-02-12T07:38:21.018Z,84.58
2019-02-12T07:39:21.010Z,84.36
2019-02-12T07:40:21.005Z,83.73
2019-02-12T07:41:20.985Z,83.73
2019-02-12T07:42:21.019Z,84.26
2019-02-12T07:43:20.969Z,84.47
2019-02-12T07:44:20.961Z,84.54
2019-02-12T07:45:20.945Z,84.05
2019-02-12T07:46:20.942Z,83.80
2019-02-12T07:47:20.927Z,83.48
2019-02-12T07:48:20.959Z,83.23
2019-02-12T07:49:20.932Z,82.70
2019-02-12T07:50:20.891Z,83.55
2019-02-12T07:51:20.911Z,81.93
2019-02-12T07:52:20.917Z,82.60
2019-02-12T07:53:20.861Z,82.60
2019-02-12T07:54:20.847Z,81.65
2019-02-12T07:55:20.879Z,81.50
2019-02-12T07:56:20.850Z,80.66
2019-02-12T07:57:20.819Z,79.81
2019-02-12T07:58:20.862Z,79.60
2019-02-12T07:59:20.797Z,79.99
2019-02-12T08:00:20.786Z,79.67
2019-02-12T08:01:20.805Z,79.57
2019-02-12T08:02:20.781Z,79.03
2019-02-12T08:03:20.758Z,79.14
2019-02-12T08:04:20.788Z,79.46
2019-02-12T08:05:20.733Z,79.14
2019-02-12T08:06:20.737Z,79.17
2019-02-12T08:07:20.715Z,79.46
2019-02-12T08:08:20.714Z,79.77
2019-02-12T08:09:20.689Z,79.14
2019-02-12T08:10:20.806Z,79.00
2019-02-12T08:11:20.674Z,79.60
2019-02-12T08:12:20.663Z,79.35
2019-02-12T08:13:20.658Z,79.99
2019-02-12T08:14:20.703Z,79.67
2019-02-12T08:15:20.633Z,80.24
2019-02-12T08:16:20.671Z,79.81
2019-02-12T08:17:20.619Z,80.24
2019-02-12T08:18:20.600Z,79.43
2019-02-12T08:19:20.589Z,76.78
2019-02-12T08:20:20.599Z,72.89
2019-02-12T08:21:20.580Z,69.02
2019-02-12T08:22:20.620Z,64.29
2019-02-12T08:23:20.584Z,62.09
2019-02-12T08:24:20.530Z,60.57
2019-02-12T08:25:20.540Z,59.81
2019-02-12T08:26:20.531Z,57.28
2019-02-12T08:27:20.523Z,56.96
2019-02-12T08:28:20.495Z,57.77
2019-02-12T08:29:20.588Z,57.67
2019-02-12T08:30:20.501Z,56.52
2019-02-12T08:31:20.477Z,55.69
2019-02-12T08:32:20.467Z,51.63
2019-02-12T08:33:20.480Z,52.59
2019-02-12T08:34:20.475Z,50.75
2019-02-12T08:35:20.409Z,51.29
2019-02-12T08:36:20.410Z,50.98
2019-02-12T08:37:20.397Z,50.49
2019-02-12T08:38:20.411Z,49.91
2019-02-12T08:39:20.368Z,49.37
2019-02-12T08:40:20.402Z,51.37
2019-02-12T08:41:20.349Z,50.39
2019-02-12T08:42:20.352Z,48.91
2019-02-12T08:43:20.336Z,49.50
2019-02-12T08:44:20.365Z,49.84
2019-02-12T08:45:20.329Z,52.28
2019-02-12T08:46:20.415Z,48.19
2019-02-12T08:47:20.282Z,48.35
2019-02-12T08:48:20.285Z,48.10
2019-02-12T08:49:20.287Z,45.72
2019-02-12T08:50:20.253Z,47.08
2019-02-12T08:51:20.267Z,47.54
2019-02-12T08:52:20.267Z,47.67
2019-02-12T08:53:20.244Z,47.38
2019-02-12T08:54:20.218Z,47.30
2019-02-12T08:55:20.209Z,48.08
2019-02-12T08:56:20.207Z,47.39
2019-02-12T08:57:20.180Z,44.31
2019-02-12T08:58:20.203Z,42.42
2019-02-12T08:59:20.189Z,42.73
2019-02-12T09:00:20.155Z,43.74
2019-02-12T09:01:20.150Z,44.49
2019-02-12T09:02:20.127Z,45.98
2019-02-12T09:03:20.117Z,45.69
2019-02-12T09:04:20.182Z,44.95
2019-02-12T09:05:20.088Z,43.89
2019-02-12T09:06:20.099Z,44.06
2019-02-12T09:07:20.138Z,43.97
2019-02-12T09:08:20.066Z,45.47
2019-02-12T09:09:20.066Z,45.98
2019-02-12T09:10:20.106Z,46.86
2019-02-12T09:11:20.026Z,47.44
2019-02-12T09:12:20.023Z,48.17
2019-02-12T09:13:20.006Z,46.53
2019-02-12T09:14:20.018Z,47.31
2019-02-12T09:15:20.056Z,49.05
2019-02-12T09:16:19.978Z,50.61
2019-02-12T09:17:20.001Z,48.21
2019-02-12T09:18:19.950Z,46.13
2019-02-12T09:19:19.962Z,46.04
2019-02-12T09:20:19.925Z,46.94
2019-02-12T09:21:19.969Z,46.65
2019-02-12T09:22:19.909Z,47.50
2019-02-12T09:23:19.903Z,47.21
2019-02-12T09:24:19.905Z,45.84
2019-02-12T09:25:19.879Z,47.11
2019-02-12T09:26:19.880Z,46.23
2019-02-12T09:27:19.890Z,45.90
2019-02-12T09:28:19.858Z,44.41
2019-02-12T09:29:19.900Z,44.72
2019-02-12T09:30:19.826Z,45.76
2019-02-12T09:31:19.907Z,46.09
2019-02-12T09:32:19.809Z,45.86
2019-02-12T09:33:19.815Z,44.70
2019-02-12T09:34:19.806Z,45.84
2019-02-12T09:35:19.778Z,46.38
2019-02-12T09:36:19.770Z,46.67
2019-02-12T09:37:19.787Z,45.45
2019-02-12T09:38:19.740Z,44.74
2019-02-12T09:39:19.734Z,45.45
2019-02-12T09:40:19.724Z,45.38
2019-02-12T09:44:44.423Z,45.86
2019-02-12T09:49:48.064Z,46.00
2019-02-12T09:50:36.928Z,47.18
2019-02-12T09:51:25.211Z,45.34
2019-02-12T09:52:47.567Z,43.31
2019-02-12T09:53:26.358Z,43.85
2019-02-12T09:56:21.019Z,42.02
2019-02-12T09:57:20.866Z,42.44
2019-02-12T09:58:20.891Z,39.97
2019-02-12T09:59:20.829Z,42.44
2019-02-12T10:00:20.823Z,43.66
2019-02-12T10:01:20.822Z,41.06
2019-02-12T10:02:20.848Z,40.36
2019-02-12T10:03:20.789Z,41.10
2019-02-12T10:04:20.792Z,43.83
2019-02-12T10:05:20.783Z,45.32
2019-02-12T10:06:22.879Z,48.05
2019-02-12T10:07:20.805Z,47.35
2019-02-12T10:08:20.736Z,47.42
2019-02-12T10:09:20.803Z,44.26
2019-02-12T10:10:20.725Z,42.03
2019-02-12T10:11:20.691Z,42.49
2019-02-12T10:12:20.693Z,42.38
2019-02-12T10:13:20.744Z,43.91
2019-02-12T10:14:20.681Z,48.72
2019-02-12T10:15:20.664Z,49.78
2019-02-12T10:16:20.662Z,51.96
2019-02-12T10:17:20.631Z,51.34
2019-02-12T10:18:20.677Z,50.07
2019-02-12T10:19:20.620Z,48.88
2019-02-12T10:20:20.599Z,47.87
2019-02-12T10:21:20.656Z,47.95
2019-02-12T10:22:20.579Z,47.82
2019-02-12T10:23:20.580Z,47.18
2019-02-12T10:24:20.627Z,47.64
2019-02-12T10:25:20.544Z,47.95
2019-02-12T10:26:20.533Z,47.52
2019-02-12T10:27:20.560Z,47.10
2019-02-12T10:28:20.515Z,46.41
2019-02-12T10:29:20.581Z,44.95
2019-02-12T10:30:20.581Z,45.56
2019-02-12T10:31:20.482Z,45.11
2019-02-12T10:32:20.519Z,43.29
2019-02-12T10:33:20.474Z,42.63
2019-02-12T10:34:20.448Z,42.83
2019-02-12T10:35:20.489Z,44.49
2019-02-12T10:36:20.450Z,44.34
2019-02-12T10:37:20.414Z,43.41
2019-02-12T10:38:20.411Z,42.15
2019-02-12T10:39:20.398Z,43.21
2019-02-12T10:40:20.373Z,41.14
2019-02-12T10:41:20.412Z,41.27
2019-02-12T10:42:20.365Z,41.81
2019-02-12T10:43:20.353Z,41.33
2019-02-12T10:44:20.350Z,40.99
2019-02-12T10:45:20.338Z,41.58
2019-02-12T10:46:20.327Z,42.23
2019-02-12T10:47:20.341Z,47.77
2019-02-12T10:48:20.292Z,49.85
2019-02-12T10:49:20.500Z,50.13
2019-02-12T10:50:20.272Z,48.33
2019-02-12T10:51:20.255Z,47.95
2019-02-12T10:52:20.244Z,49.39
2019-02-12T10:53:20.237Z,49.74
2019-02-12T10:54:27.728Z,47.99
2019-02-12T10:55:21.247Z,47.04
2019-02-12T10:56:20.202Z,48.82
2019-02-12T10:57:20.197Z,50.74
2019-02-12T10:58:20.215Z,52.78
2019-02-12T10:59:20.221Z,53.56
2019-02-12T11:00:20.157Z,55.27
2019-02-12T11:01:20.158Z,53.82
2019-02-12T11:02:20.158Z,53.40
2019-02-12T11:03:21.052Z,55.06
2019-02-12T11:04:21.552Z,55.90
2019-02-12T11:05:20.154Z,55.48
2019-02-12T11:06:20.102Z,52.94
2019-02-12T11:07:20.081Z,50.82
2019-02-12T11:08:20.641Z,50.35
2019-02-12T11:09:20.078Z,48.55
2019-02-12T11:10:20.065Z,48.71
2019-02-12T11:11:20.040Z,45.83
2019-02-12T11:12:20.038Z,45.32
2019-02-12T11:13:20.032Z,46.62
2019-02-12T11:14:20.046Z,45.57
2019-02-12T11:15:20.062Z,46.73
2019-02-12T11:16:20.019Z,49.26
2019-02-12T11:17:19.978Z,49.03
2019-02-12T11:18:19.962Z,50.05
2019-02-12T11:19:19.961Z,52.18
2019-02-12T11:20:19.988Z,50.83
2019-02-12T11:21:19.931Z,53.06
2019-02-12T11:22:19.923Z,53.08
2019-02-12T11:23:19.914Z,53.45
2019-02-12T11:24:19.920Z,54.05
2019-02-12T11:25:19.945Z,52.48
2019-02-12T11:26:19.881Z,52.36
2019-02-12T11:27:19.866Z,52.39
2019-02-12T11:28:19.866Z,49.22
2019-02-12T11:29:19.847Z,49.51
2019-02-12T11:30:19.841Z,47.83
2019-02-12T11:31:19.935Z,49.04
2019-02-12T11:32:19.813Z,50.83
2019-02-12T11:33:19.827Z,49.91
2019-02-12T11:34:19.800Z,51.35
2019-02-12T11:35:19.820Z,50.98
2019-02-12T11:36:19.770Z,51.09
2019-02-12T11:37:19.761Z,51.50
2019-02-12T11:38:19.749Z,50.05
2019-02-12T11:39:19.754Z,49.95
2019-02-12T11:40:19.732Z,51.28
2019-02-12T11:41:19.794Z,50.13
2019-02-12T11:42:19.707Z,48.87
2019-02-12T11:43:19.690Z,47.75
2019-02-12T11:44:19.702Z,50.00
2019-02-12T11:45:19.740Z,50.75
2019-02-12T11:46:19.657Z,52.15
2019-02-12T11:47:19.788Z,51.05
2019-02-12T11:48:19.637Z,48.95
2019-02-12T11:49:19.733Z,49.37
2019-02-12T11:50:19.636Z,48.33
2019-02-12T11:51:19.604Z,47.50
2019-02-12T11:52:19.591Z,48.22
2019-02-12T11:53:19.623Z,46.17
2019-02-12T11:54:20.534Z,48.06
2019-02-12T11:55:19.565Z,47.63
2019-02-12T11:56:19.555Z,50.12
2019-02-12T11:57:19.538Z,48.99
2019-02-12T11:58:19.531Z,46.90
2019-02-12T11:59:19.567Z,45.88
2019-02-12T12:00:19.514Z,46.50
2019-02-12T12:01:19.509Z,46.09
2019-02-12T12:02:19.508Z,46.79
2019-02-12T12:03:19.477Z,47.29
2019-02-12T12:04:19.464Z,49.13
2019-02-12T12:05:19.541Z,48.05
2019-02-12T12:06:19.445Z,46.40
2019-02-12T12:07:19.438Z,47.12
2019-02-12T12:08:19.463Z,47.78
2019-02-12T12:09:19.429Z,47.83
2019-02-12T12:10:19.406Z,49.41
2019-02-12T12:11:19.425Z,47.75
2019-02-12T12:12:19.391Z,47.54
2019-02-12T12:13:19.370Z,48.19
2019-02-12T12:14:20.049Z,47.73
2019-02-12T12:15:20.353Z,47.99
2019-02-12T12:16:19.343Z,48.27
2019-02-12T12:17:19.372Z,49.22
2019-02-12T12:18:19.324Z,51.07
2019-02-12T12:19:19.313Z,50.76
2019-02-12T12:20:20.301Z,49.60
2019-02-12T12:21:19.284Z,49.13
2019-02-12T12:22:19.272Z,47.64
2019-02-12T12:23:19.323Z,48.51
2019-02-12T12:24:19.254Z,49.57
2019-02-12T12:25:19.352Z,50.03
2019-02-12T12:26:19.284Z,51.38
2019-02-12T12:27:19.217Z,51.88
2019-02-12T12:28:19.218Z,49.47
2019-02-12T12:29:19.281Z,51.22
2019-02-12T12:30:19.190Z,52.96
2019-02-12T12:31:19.175Z,51.87
2019-02-12T12:32:19.163Z,47.81
2019-02-12T12:33:19.162Z,49.51
2019-02-12T12:34:19.219Z,48.47
2019-02-12T12:35:19.135Z,48.02
2019-02-12T12:36:19.149Z,49.21
2019-02-12T12:37:19.163Z,48.90
2019-02-12T12:38:19.099Z,47.95
2019-02-12T12:39:19.084Z,47.02
2019-02-12T12:40:19.075Z,44.38
2019-02-12T12:41:19.092Z,42.03
2019-02-12T12:42:19.051Z,40.80
2019-02-12T12:43:19.100Z,38.67
2019-02-12T12:44:19.047Z,39.10
2019-02-12T12:45:19.034Z,39.06
2019-02-12T12:46:19.036Z,40.86
2019-02-12T12:47:19.006Z,41.00
2019-02-12T12:48:19.005Z,42.18
2019-02-12T12:49:19.015Z,43.24
2019-02-12T12:50:18.970Z,43.45
2019-02-12T12:51:18.946Z,43.80
2019-02-12T12:52:18.955Z,45.65
2019-02-12T12:53:18.927Z,47.83
2019-02-12T12:54:18.920Z,47.83
2019-02-12T12:55:18.949Z,48.33
2019-02-12T12:56:18.904Z,48.54
2019-02-12T12:57:18.898Z,46.63
2019-02-12T12:58:18.886Z,46.50
2019-02-12T12:59:18.893Z,47.50
2019-02-12T13:00:18.876Z,45.90
2019-02-12T13:01:18.890Z,46.42